Time;durP1;ratioP1;P1;durP2;ratioP2;P2;SDS_P1;SDS_P2;PMS_P1;PMS_P2;Temp;Humidity;BMP_temperature;BMP_pressure;BME280_temperature;BME280_humidity;BME280_pressure;Samples;Min_cycle;Max_cycle;Signal;HPM_P1;HPM_P2
2023/01/16 00:00:56;;;;;;;1.60;1.33;;;6.20;98.20;;;;;;4981938;28;20474;-71
2023/01/16 00:03:23;;;;;;;1.63;1.40;;;6.20;98.20;;;;;;4993925;28;20468;-74
2023/01/16 00:05:49;;;;;;;1.60;1.40;;;6.10;98.20;;;;;;4983302;28;20553;-71
2023/01/16 00:08:17;;;;;;;1.70;1.40;;;6.10;98.20;;;;;;4988001;28;20840;-73
2023/01/16 00:10:45;;;;;;;1.60;1.30;;;6.10;98.20;;;;;;4979192;28;20497;-74
2023/01/16 00:13:12;;;;;;;1.60;1.40;;;6.10;98.20;;;;;;4982933;28;20820;-73
2023/01/16 00:15:44;;;;;;;1.70;1.33;;;6.00;98.20;;;;;;4993476;28;20839;-74
2023/01/16 00:18:10;;;;;;;1.60;1.30;;;6.00;98.20;;;;;;4978346;28;20838;-74
2023/01/16 00:20:37;;;;;;;1.60;1.30;;;5.90;98.20;;;;;;4990157;28;20479;-73
2023/01/16 00:23:04;;;;;;;1.70;1.40;;;5.90;98.20;;;;;;4978444;28;20488;-73
2023/01/16 00:25:32;;;;;;;1.60;1.30;;;5.90;98.20;;;;;;4993495;28;20472;-73
2023/01/16 00:27:59;;;;;;;1.60;1.23;;;5.80;98.20;;;;;;4978314;28;20858;-74
2023/01/16 00:30:26;;;;;;;1.63;1.40;;;5.80;98.20;;;;;;4987130;28;20917;-74
2023/01/16 00:32:53;;;;;;;1.60;1.30;;;5.70;98.20;;;;;;4977379;28;20485;-73
2023/01/16 00:35:19;;;;;;;1.70;1.50;;;5.70;98.20;;;;;;4996333;28;20835;-73
2023/01/16 00:37:46;;;;;;;1.60;1.30;;;5.70;98.20;;;;;;4972708;28;20485;-74
2023/01/16 00:40:13;;;;;;;1.70;1.30;;;5.60;98.20;;;;;;4986691;28;20848;-73
2023/01/16 00:42:41;;;;;;;1.70;1.40;;;5.60;98.20;;;;;;4979044;28;20860;-73
2023/01/16 00:45:09;;;;;;;1.60;1.30;;;5.60;98.20;;;;;;4996145;28;20460;-74
2023/01/16 00:47:36;;;;;;;1.63;1.30;;;5.50;98.20;;;;;;4978641;28;20491;-74
2023/01/16 00:50:03;;;;;;;1.60;1.30;;;5.50;98.20;;;;;;4984287;28;20492;-73
2023/01/16 00:52:30;;;;;;;1.70;1.40;;;5.50;98.20;;;;;;4981607;28;20480;-74
2023/01/16 00:54:57;;;;;;;1.70;1.30;;;5.50;98.20;;;;;;4992561;28;20951;-73
2023/01/16 00:57:24;;;;;;;1.70;1.40;;;5.50;98.20;;;;;;4982812;28;21005;-74
2023/01/16 00:59:52;;;;;;;3.13;2.60;;;5.50;98.20;;;;;;4984314;28;20484;-73
2023/01/16 01:02:19;;;;;;;1.60;1.30;;;5.40;98.20;;;;;;4982802;28;20480;-73
2023/01/16 01:04:46;;;;;;;1.67;1.40;;;5.40;98.20;;;;;;4991018;28;20476;-74
2023/01/16 01:07:12;;;;;;;1.67;1.30;;;5.40;98.20;;;;;;4981735;28;20495;-73
2023/01/16 01:09:39;;;;;;;1.60;1.40;;;5.40;98.20;;;;;;4990976;28;20491;-73
2023/01/16 01:12:06;;;;;;;1.67;1.40;;;5.40;98.20;;;;;;4980523;28;20563;-73
2023/01/16 01:14:33;;;;;;;1.70;1.50;;;5.40;98.20;;;;;;4990497;28;20472;-73
2023/01/16 01:17:01;;;;;;;1.60;1.40;;;5.40;98.20;;;;;;4977866;28;20490;-73
2023/01/16 01:19:28;;;;;;;1.67;1.50;;;5.40;98.20;;;;;;4996031;28;20484;-73
2023/01/16 01:21:55;;;;;;;1.63;1.33;;;5.40;98.20;;;;;;4980070;28;20481;-73
2023/01/16 01:24:21;;;;;;;1.60;1.37;;;5.40;98.20;;;;;;4999401;28;20463;-73
2023/01/16 01:26:48;;;;;;;1.63;1.30;;;5.40;98.20;;;;;;4981519;28;20503;-73
2023/01/16 01:29:15;;;;;;;1.63;1.40;;;5.40;98.20;;;;;;4990508;28;20487;-73
2023/01/16 01:31:41;;;;;;;1.70;1.50;;;5.40;98.20;;;;;;4983259;28;20485;-73
2023/01/16 01:34:09;;;;;;;1.63;1.30;;;5.40;98.20;;;;;;5000124;28;20464;-73
2023/01/16 01:36:36;;;;;;;1.70;1.40;;;5.50;98.20;;;;;;4983127;28;20488;-73
2023/01/16 01:39:03;;;;;;;1.60;1.30;;;5.50;98.20;;;;;;4993818;28;20481;-73
2023/01/16 01:41:30;;;;;;;1.60;1.30;;;5.50;98.20;;;;;;4979745;28;21133;-73
2023/01/16 01:43:57;;;;;;;1.70;1.50;;;5.60;98.20;;;;;;5000149;28;20738;-73
2023/01/16 01:46:31;;;;;;;1.70;1.40;;;5.60;98.20;;;;;;4982811;28;20883;-74
2023/01/16 01:49:01;;;;;;;1.70;1.40;;;5.60;98.20;;;;;;4998361;28;20463;-73
2023/01/16 01:51:33;;;;;;;1.67;1.30;;;5.60;98.20;;;;;;4979741;28;20485;-73
2023/01/16 01:54:03;;;;;;;1.70;1.40;;;5.70;98.20;;;;;;4989784;28;20818;-73
2023/01/16 01:56:33;;;;;;;1.60;1.30;;;5.70;98.20;;;;;;4986064;28;20508;-73
2023/01/16 01:59:05;;;;;;;1.67;1.40;;;5.70;98.20;;;;;;4990535;28;20485;-73
2023/01/16 02:01:32;;;;;;;1.60;1.30;;;5.80;98.20;;;;;;4986469;28;20728;-73
2023/01/16 02:04:02;;;;;;;1.60;1.30;;;5.80;98.20;;;;;;4997055;28;20462;-74
2023/01/16 02:06:37;;;;;;;1.70;1.30;;;5.80;98.20;;;;;;4982840;28;20696;-74
2023/01/16 02:09:04;;;;;;;1.70;1.40;;;5.80;98.20;;;;;;4997020;28;20503;-73
2023/01/16 02:11:36;;;;;;;1.60;1.30;;;5.90;98.20;;;;;;4988667;28;20491;-73
2023/01/16 02:14:06;;;;;;;1.60;1.30;;;6.00;98.20;;;;;;5002862;28;20465;-73
2023/01/16 02:19:28;;;;;;;1.70;1.50;;;6.10;98.20;;;;;;4983471;28;20461;-75
2023/01/16 02:22:39;;;;;;;1.67;1.50;;;6.10;98.20;;;;;;4979921;28;20508;-73
2023/01/16 02:25:42;;;;;;;1.63;1.30;;;6.10;98.20;;;;;;5000604;28;20456;-74
2023/01/16 02:28:47;;;;;;;1.60;1.30;;;6.20;98.20;;;;;;4973285;28;20484;-73
2023/01/16 02:31:24;;;;;;;1.70;1.53;;;6.20;98.20;;;;;;4977204;28;20484;-74
2023/01/16 02:34:08;;;;;;;1.60;1.30;;;6.10;98.20;;;;;;4998114;28;20474;-74
2023/01/16 02:36:44;;;;;;;1.60;1.30;;;6.00;98.20;;;;;;4983508;28;20488;-73
2023/01/16 02:39:19;;;;;;;1.60;1.30;;;6.00;98.20;;;;;;4990173;28;20486;-73
2023/01/16 02:41:51;;;;;;;1.70;1.40;;;6.00;98.20;;;;;;4981812;28;20539;-73
2023/01/16 02:44:25;;;;;;;1.63;1.30;;;5.90;98.20;;;;;;5002876;28;20460;-74
2023/01/16 02:47:06;;;;;;;1.63;1.33;;;5.80;98.20;;;;;;4972619;28;20998;-74
2023/01/16 02:49:41;;;;;;;1.70;1.50;;;5.80;98.20;;;;;;4997892;28;20476;-73
2023/01/16 02:52:17;;;;;;;1.70;1.50;;;5.70;98.20;;;;;;4990049;28;20795;-74
2023/01/16 02:54:53;;;;;;;1.60;1.40;;;5.60;98.20;;;;;;4974703;28;20468;-74
2023/01/16 02:57:22;;;;;;;1.60;1.30;;;5.60;98.20;;;;;;4969426;28;20989;-74
2023/01/16 02:59:50;;;;;;;1.70;1.40;;;5.50;98.20;;;;;;4979177;28;20744;-73
2023/01/16 03:02:18;;;;;;;1.67;1.30;;;5.50;98.20;;;;;;4973771;28;20484;-73
2023/01/16 03:04:47;;;;;;;1.60;1.30;;;5.40;98.20;;;;;;4993995;28;20461;-73
2023/01/16 03:07:47;;;;;;;1.63;1.30;;;5.40;98.20;;;;;;4970171;28;20489;-72
2023/01/16 03:10:34;;;;;;;1.70;1.50;;;5.40;98.20;;;;;;4973950;28;20493;-72
2023/01/16 03:13:15;;;;;;;1.70;1.40;;;5.30;98.20;;;;;;4985156;28;20481;-72
2023/01/16 03:15:50;;;;;;;1.60;1.30;;;5.30;98.20;;;;;;4986337;28;20471;-72
2023/01/16 03:18:28;;;;;;;1.63;1.40;;;5.30;98.20;;;;;;4973579;28;20456;-72
2023/01/16 03:21:01;;;;;;;1.60;1.33;;;5.30;98.20;;;;;;4974903;28;20472;-72
2023/01/16 03:23:35;;;;;;;1.60;1.30;;;5.30;98.20;;;;;;4995819;28;20465;-72
2023/01/16 03:26:05;;;;;;;1.70;1.60;;;5.30;98.20;;;;;;4976937;28;20465;-73
2023/01/16 03:28:41;;;;;;;1.60;1.30;;;5.30;98.20;;;;;;4985497;28;20472;-72
2023/01/16 03:31:15;;;;;;;1.70;1.60;;;5.30;98.20;;;;;;4977461;28;20481;-72
2023/01/16 03:33:53;;;;;;;1.60;1.30;;;5.30;98.20;;;;;;4980920;28;20473;-72
2023/01/16 03:36:27;;;;;;;1.60;1.30;;;5.30;98.20;;;;;;4963902;28;20484;-74
2023/01/16 03:38:56;;;;;;;1.60;1.30;;;5.20;98.20;;;;;;4980966;28;20978;-72
2023/01/16 03:41:26;;;;;;;1.63;1.30;;;5.20;98.20;;;;;;4977420;28;20484;-72
2023/01/16 03:43:59;;;;;;;1.67;1.40;;;5.30;98.20;;;;;;4980602;28;20466;-72
2023/01/16 03:46:30;;;;;;;1.70;1.40;;;5.30;98.20;;;;;;4977024;28;20541;-73
2023/01/16 03:49:03;;;;;;;1.67;1.40;;;5.30;98.20;;;;;;4977814;28;20461;-72
2023/01/16 03:51:34;;;;;;;1.63;1.30;;;5.40;98.20;;;;;;4966318;28;20503;-73
2023/01/16 03:54:05;;;;;;;1.70;1.40;;;5.40;98.20;;;;;;4975349;28;20465;-73
2023/01/16 03:56:37;;;;;;;1.60;1.30;;;5.50;98.20;;;;;;4958552;28;21642;-73
2023/01/16 03:59:05;;;;;;;1.70;1.47;;;5.50;98.20;;;;;;4979972;28;20501;-73
2023/01/16 04:01:38;;;;;;;1.63;1.40;;;5.50;98.20;;;;;;4972392;28;20528;-73
2023/01/16 04:04:11;;;;;;;1.67;1.30;;;5.40;98.20;;;;;;4967119;28;20472;-72
2023/01/16 04:06:44;;;;;;;1.70;1.50;;;5.40;98.20;;;;;;4962848;28;20851;-72
2023/01/16 04:09:15;;;;;;;1.67;1.33;;;5.40;98.20;;;;;;4970019;28;20492;-74
2023/01/16 04:11:43;;;;;;;1.70;1.40;;;5.50;98.20;;;;;;4977835;28;20480;-74
2023/01/16 04:14:13;;;;;;;1.70;1.40;;;5.50;98.20;;;;;;4974003;28;20465;-74
2023/01/16 04:16:42;;;;;;;1.67;1.40;;;5.50;98.20;;;;;;4971122;28;20501;-75
2023/01/16 04:19:13;;;;;;;1.60;1.30;;;5.50;98.20;;;;;;4971631;28;20983;-74
2023/01/16 04:21:44;;;;;;;1.60;1.30;;;5.50;98.20;;;;;;4962871;28;20837;-72
2023/01/16 04:24:12;;;;;;;1.63;1.33;;;5.50;98.20;;;;;;4976910;28;20900;-74
2023/01/16 04:26:38;;;;;;;1.70;1.50;;;5.40;98.20;;;;;;4966111;28;20477;-74
2023/01/16 04:29:05;;;;;;;1.70;1.43;;;5.40;98.20;;;;;;4982688;28;20485;-74
2023/01/16 04:31:32;;;;;;;1.70;1.40;;;5.40;98.20;;;;;;4966276;28;20511;-73
2023/01/16 04:33:59;;;;;;;1.60;1.30;;;5.40;98.20;;;;;;4976555;28;20469;-72
2023/01/16 04:36:27;;;;;;;1.60;1.30;;;5.40;98.20;;;;;;4968507;28;20480;-73
2023/01/16 04:38:53;;;;;;;1.63;1.30;;;5.40;98.20;;;;;;4979382;28;20454;-75
2023/01/16 04:44:01;;;;;;;1.70;1.40;;;5.40;98.20;;;;;;4980022;28;20460;-74
2023/01/16 04:46:28;;;;;;;1.70;1.40;;;5.40;98.20;;;;;;4965002;28;20869;-72
2023/01/16 04:48:55;;;;;;;1.67;1.30;;;5.40;98.20;;;;;;4978071;28;21245;-72
2023/01/16 04:51:21;;;;;;;1.70;1.50;;;5.40;98.20;;;;;;4966601;28;20477;-72
2023/01/16 04:53:49;;;;;;;1.70;1.50;;;5.40;98.20;;;;;;4980166;28;20851;-72
2023/01/16 04:56:16;;;;;;;1.70;1.40;;;5.40;98.20;;;;;;4961586;28;21012;-72
2023/01/16 04:58:43;;;;;;;1.60;1.30;;;5.40;98.20;;;;;;4984859;28;20457;-73
2023/01/16 05:01:10;;;;;;;1.70;1.30;;;5.40;98.20;;;;;;4966303;28;20494;-72
2023/01/16 05:03:36;;;;;;;1.60;1.33;;;5.40;98.20;;;;;;4984027;28;20465;-74
2023/01/16 05:06:04;;;;;;;1.63;1.30;;;5.40;98.20;;;;;;4963709;28;20477;-72
2023/01/16 05:08:30;;;;;;;1.60;1.30;;;5.40;98.20;;;;;;4990942;28;20466;-74
2023/01/16 05:11:00;;;;;;;1.60;1.30;;;5.50;98.20;;;;;;4965859;28;20498;-73
2023/01/16 05:13:28;;;;;;;1.67;1.33;;;5.50;98.20;;;;;;4985488;28;20453;-74
2023/01/16 05:15:54;;;;;;;1.70;1.50;;;5.50;98.20;;;;;;4968796;28;20460;-73
2023/01/16 05:18:21;;;;;;;1.70;1.40;;;5.60;98.20;;;;;;4986191;28;20465;-73
2023/01/16 05:20:48;;;;;;;1.67;1.40;;;5.60;98.20;;;;;;4963029;28;21142;-73
2023/01/16 05:23:15;;;;;;;1.67;1.30;;;5.70;98.20;;;;;;4989102;28;20466;-73
2023/01/16 05:25:41;;;;;;;1.70;1.40;;;5.70;98.20;;;;;;4984390;28;20457;-73
2023/01/16 05:28:10;;;;;;;1.63;1.37;;;5.70;98.20;;;;;;4978414;28;20486;-74
2023/01/16 05:30:37;;;;;;;1.67;1.30;;;5.80;98.20;;;;;;4981230;28;20489;-73
2023/01/16 05:33:05;;;;;;;1.70;1.50;;;5.80;98.20;;;;;;4976745;28;20516;-73
2023/01/16 05:35:39;;;;;;;1.67;1.37;;;5.80;98.20;;;;;;4976441;28;20470;-73
2023/01/16 05:38:06;;;;;;;1.60;1.30;;;5.80;98.20;;;;;;4975381;28;20894;-73
2023/01/16 05:40:33;;;;;;;1.70;1.40;;;5.90;98.20;;;;;;4978466;28;20485;-74
2023/01/16 05:43:00;;;;;;;1.63;1.30;;;5.90;98.20;;;;;;4977224;28;20531;-73
2023/01/16 05:45:28;;;;;;;1.60;1.20;;;5.90;98.20;;;;;;4977039;28;20461;-73
2023/01/16 05:47:54;;;;;;;1.70;1.40;;;5.90;98.20;;;;;;4976416;28;20547;-73
2023/01/16 05:50:21;;;;;;;2.57;2.37;;;5.90;98.20;;;;;;4974934;28;20489;-74
2023/01/16 05:52:48;;;;;;;1.60;1.30;;;5.80;98.20;;;;;;4981181;28;20490;-73
2023/01/16 05:55:15;;;;;;;1.63;1.30;;;5.80;98.20;;;;;;4980543;28;20518;-73
2023/01/16 05:57:42;;;;;;;1.60;1.30;;;5.80;98.20;;;;;;4974445;28;20485;-74
2023/01/16 06:00:10;;;;;;;1.67;1.40;;;5.80;98.20;;;;;;4982967;28;20481;-73
2023/01/16 06:02:38;;;;;;;1.67;1.30;;;5.80;98.20;;;;;;4971992;28;20481;-73
2023/01/16 06:05:06;;;;;;;1.63;1.30;;;5.80;98.20;;;;;;4970572;28;20800;-73
2023/01/16 06:07:33;;;;;;;1.60;1.40;;;5.80;98.20;;;;;;4974012;28;20869;-75
2023/01/16 06:10:00;;;;;;;1.67;1.30;;;5.80;98.20;;;;;;4976108;28;20527;-71
2023/01/16 06:12:26;;;;;;;1.60;1.30;;;5.80;98.20;;;;;;4976889;28;20484;-73
2023/01/16 06:14:53;;;;;;;1.70;1.50;;;5.90;98.20;;;;;;4971636;28;20550;-72
2023/01/16 06:17:20;;;;;;;1.67;1.40;;;5.90;98.20;;;;;;4978039;28;21112;-72
2023/01/16 06:19:48;;;;;;;1.67;1.40;;;5.90;98.20;;;;;;4972610;28;20843;-72
2023/01/16 06:22:16;;;;;;;1.67;1.40;;;6.00;98.20;;;;;;4969850;28;20477;-72
2023/01/16 06:24:42;;;;;;;1.63;1.30;;;6.00;98.20;;;;;;4976881;28;20462;-72
2023/01/16 06:27:09;;;;;;;1.63;1.30;;;6.00;98.20;;;;;;4964329;28;20488;-72
2023/01/16 06:29:38;;;;;;;1.60;1.20;;;6.00;98.20;;;;;;4976121;28;20492;-72
2023/01/16 06:32:05;;;;;;;1.60;1.30;;;6.00;98.20;;;;;;4966486;28;20488;-72
2023/01/16 06:34:32;;;;;;;1.70;1.50;;;6.00;98.20;;;;;;4972240;28;20470;-74
2023/01/16 06:37:00;;;;;;;1.60;1.30;;;6.00;98.20;;;;;;4975838;28;20484;-75
2023/01/16 06:39:27;;;;;;;1.63;1.30;;;6.00;98.20;;;;;;4986561;28;20486;-74
2023/01/16 06:41:54;;;;;;;1.60;1.40;;;6.00;98.20;;;;;;4964824;28;20513;-73
2023/01/16 06:44:21;;;;;;;1.63;1.30;;;6.00;98.20;;;;;;4970893;28;20944;-72
2023/01/16 06:46:48;;;;;;;1.60;1.30;;;6.00;98.20;;;;;;4961432;28;21002;-72
2023/01/16 06:49:14;;;;;;;1.70;1.30;;;6.00;98.20;;;;;;4969318;28;20588;-72
2023/01/16 06:51:42;;;;;;;1.60;1.30;;;6.00;98.20;;;;;;4967121;28;20488;-72
2023/01/16 06:54:10;;;;;;;1.60;1.30;;;6.00;98.20;;;;;;4982191;28;20832;-72
2023/01/16 06:56:37;;;;;;;1.70;1.40;;;6.00;98.20;;;;;;4968372;28;21104;-71
2023/01/16 06:59:04;;;;;;;1.70;1.30;;;6.00;98.20;;;;;;4983503;28;20490;-72
2023/01/16 07:01:31;;;;;;;1.67;1.40;;;6.00;98.20;;;;;;4959289;28;20489;-74
2023/01/16 07:03:58;;;;;;;1.70;1.50;;;6.00;98.20;;;;;;4972987;28;20472;-72
2023/01/16 07:06:24;;;;;;;1.60;1.40;;;6.00;98.20;;;;;;4964786;28;20828;-72
2023/01/16 07:08:53;;;;;;;1.70;1.40;;;6.00;98.20;;;;;;4982065;28;20849;-72
2023/01/16 07:11:21;;;;;;;1.70;1.40;;;6.10;98.20;;;;;;4966772;28;21124;-75
2023/01/16 07:13:48;;;;;;;1.70;1.40;;;6.10;98.20;;;;;;4979678;28;20490;-72
2023/01/16 07:24:38;;;;;;;1.70;1.50;;;6.10;98.20;;;;;;4972373;28;20461;-72
2023/01/16 07:27:08;;;;;;;1.60;1.30;;;6.10;98.20;;;;;;4974928;28;20883;-73
2023/01/16 07:29:37;;;;;;;1.60;1.20;;;6.10;98.20;;;;;;4983690;28;20481;-76
2023/01/16 07:32:05;;;;;;;1.60;1.20;;;6.20;98.20;;;;;;4974022;28;21004;-75
2023/01/16 07:34:32;;;;;;;1.67;1.40;;;6.20;98.20;;;;;;4980044;28;20461;-74
2023/01/16 07:36:58;;;;;;;1.67;1.40;;;6.20;98.20;;;;;;4973709;28;20488;-76
2023/01/16 07:39:25;;;;;;;1.70;1.33;;;6.20;98.20;;;;;;4980453;28;20689;-75
2023/01/16 07:41:52;;;;;;;1.70;1.30;;;6.20;98.20;;;;;;4975387;28;20498;-76
2023/01/16 07:44:20;;;;;;;1.67;1.40;;;6.30;98.20;;;;;;4980428;28;20898;-74
2023/01/16 07:46:47;;;;;;;1.70;1.50;;;6.30;98.20;;;;;;4971169;28;20481;-76
2023/01/16 07:49:13;;;;;;;1.63;1.30;;;6.30;98.20;;;;;;4983145;28;20499;-79
2023/01/16 07:51:40;;;;;;;1.60;1.40;;;6.30;98.20;;;;;;4974083;28;20477;-75
2023/01/16 07:54:09;;;;;;;1.60;1.33;;;6.30;98.20;;;;;;4985475;28;20488;-74
2023/01/16 07:56:35;;;;;;;1.70;1.40;;;6.30;98.20;;;;;;4981337;28;20522;-78
2023/01/16 07:59:02;;;;;;;1.60;1.40;;;6.20;98.20;;;;;;4985207;28;20465;-76
2023/01/16 08:01:30;;;;;;;1.60;1.30;;;6.20;98.20;;;;;;4977261;28;20481;-75
2023/01/16 08:03:57;;;;;;;1.60;1.30;;;6.10;98.20;;;;;;4986111;28;20977;-76
2023/01/16 08:06:24;;;;;;;1.63;1.30;;;6.10;98.20;;;;;;4973376;28;21535;-77
2023/01/16 08:08:51;;;;;;;1.67;1.37;;;6.00;98.20;;;;;;4974941;28;20549;-73
2023/01/16 08:14:02;;;;;;;1.60;1.30;;;6.00;98.20;;;;;;4987406;28;20615;-73
2023/01/16 08:16:31;;;;;;;1.60;1.30;;;6.00;98.20;;;;;;4975615;28;20612;-73
2023/01/16 08:18:57;;;;;;;1.60;1.20;;;6.10;98.20;;;;;;4982250;28;20469;-74
2023/01/16 08:21:24;;;;;;;1.63;1.40;;;6.10;98.20;;;;;;4971187;28;20473;-75
2023/01/16 08:23:51;;;;;;;1.60;1.30;;;6.10;98.20;;;;;;4988632;28;20457;-74
2023/01/16 08:26:18;;;;;;;1.60;1.40;;;6.10;98.20;;;;;;4976690;28;20845;-75
2023/01/16 08:28:45;;;;;;;1.60;1.30;;;6.10;98.20;;;;;;4986182;28;20548;-74
2023/01/16 08:31:14;;;;;;;1.60;1.20;;;6.10;98.20;;;;;;4976389;28;20768;-74
2023/01/16 08:33:43;;;;;;;1.63;1.30;;;6.10;98.20;;;;;;4988392;28;20866;-73
2023/01/16 08:36:12;;;;;;;1.70;1.40;;;6.10;98.20;;;;;;4976666;28;21098;-74
2023/01/16 08:38:39;;;;;;;1.70;1.60;;;6.20;98.20;;;;;;4990581;28;20586;-74
2023/01/16 08:51:21;;;;;;;1.60;1.40;;;6.20;98.20;;;;;;4978596;28;20489;-74
2023/01/16 08:52:07;;;;;;;1.60;1.27;;;6.20;98.20;;;;;;4968593;28;20468;-73
2023/01/16 08:54:34;;;;;;;1.70;1.40;;;6.20;98.20;;;;;;4990745;28;20465;-75
2023/01/16 08:57:01;;;;;;;1.67;1.30;;;6.20;98.20;;;;;;4962985;28;20500;-74
2023/01/16 08:59:32;;;;;;;1.70;1.40;;;6.20;98.20;;;;;;4979739;28;20481;-73
2023/01/16 09:02:00;;;;;;;1.60;1.30;;;6.20;98.20;;;;;;4970949;28;20488;-73
2023/01/16 09:04:28;;;;;;;1.60;1.30;;;6.20;98.20;;;;;;4982686;28;20461;-73
2023/01/16 09:06:55;;;;;;;1.60;1.30;;;6.20;98.20;;;;;;4964899;28;20990;-74
2023/01/16 09:09:21;;;;;;;1.63;1.37;;;6.10;98.20;;;;;;4975326;28;20493;-74
2023/01/16 09:14:39;;;;;;;1.60;1.30;;;6.10;98.20;;;;;;5007374;28;20868;-74
2023/01/16 09:17:06;;;;;;;1.60;1.30;;;6.10;98.20;;;;;;5007241;28;20475;-74
2023/01/16 09:19:35;;;;;;;1.67;1.30;;;6.10;98.20;;;;;;5010211;28;20475;-74
2023/01/16 09:22:04;;;;;;;1.60;1.20;;;6.10;98.20;;;;;;4994075;28;20484;-74
2023/01/16 09:24:31;;;;;;;1.60;1.30;;;6.10;98.20;;;;;;5002906;28;20495;-74
2023/01/16 09:26:58;;;;;;;1.60;1.30;;;6.10;98.20;;;;;;4988153;28;20924;-74
2023/01/16 09:29:26;;;;;;;1.60;1.30;;;6.00;98.20;;;;;;5000096;28;20499;-74
2023/01/16 09:31:53;;;;;;;1.60;1.30;;;6.10;98.20;;;;;;5003223;28;20525;-73
2023/01/16 09:34:20;;;;;;;1.60;1.50;;;6.00;98.20;;;;;;5007829;28;20488;-73
2023/01/16 09:36:48;;;;;;;1.67;1.40;;;6.10;98.20;;;;;;4995738;28;20511;-73
2023/01/16 09:39:15;;;;;;;1.67;1.30;;;6.10;98.20;;;;;;5003735;28;20475;-73
2023/01/16 09:44:55;;;;;;;1.70;1.40;;;6.10;98.20;;;;;;4920991;29;20455;-73
2023/01/16 09:47:25;;;;;;;1.60;1.30;;;6.00;98.20;;;;;;4983140;28;20995;-73
2023/01/16 09:49:56;;;;;;;1.60;1.30;;;6.10;98.20;;;;;;5005621;28;20786;-73
2023/01/16 10:01:00;;;;;;;1.60;1.30;;;6.00;98.20;;;;;;4993768;28;20817;-73
2023/01/16 10:03:27;;;;;;;1.60;1.20;;;6.00;98.20;;;;;;5015772;28;20479;-74
2023/01/16 10:06:00;;;;;;;1.60;1.30;;;6.00;98.20;;;;;;4998038;28;20475;-73
2023/01/16 10:08:37;;;;;;;1.60;1.37;;;6.00;98.20;;;;;;4990842;28;20976;-73
2023/01/16 10:11:14;;;;;;;1.60;1.30;;;6.00;98.20;;;;;;4999285;28;20464;-73
2023/01/16 10:14:05;;;;;;;1.60;1.20;;;6.00;98.20;;;;;;5017590;28;20571;-73
2023/01/16 10:16:44;;;;;;;1.63;1.40;;;6.00;98.20;;;;;;4985829;28;20560;-73
2023/01/16 10:19:18;;;;;;;1.60;1.43;;;6.10;98.20;;;;;;5003019;28;20463;-73
2023/01/16 10:22:14;;;;;;;1.60;1.27;;;6.10;98.20;;;;;;4990913;28;21005;-73
2023/01/16 10:24:53;;;;;;;1.60;1.30;;;6.10;98.20;;;;;;5000153;28;20897;-73
2023/01/16 10:27:28;;;;;;;1.60;1.30;;;6.10;98.20;;;;;;4986459;28;20486;-73
2023/01/16 10:30:00;;;;;;;1.70;1.50;;;6.20;98.20;;;;;;5002346;28;20460;-73
2023/01/16 10:32:32;;;;;;;1.70;1.50;;;6.20;98.20;;;;;;5002721;28;20988;-73
2023/01/16 10:35:04;;;;;;;1.60;1.30;;;6.20;98.20;;;;;;5005720;28;20551;-73
2023/01/16 10:37:32;;;;;;;1.60;1.30;;;6.20;98.20;;;;;;4987414;28;20480;-74
2023/01/16 10:40:09;;;;;;;1.60;1.27;;;6.30;98.20;;;;;;5003643;28;20470;-74
2023/01/16 10:50:56;;;;;;;1.60;1.33;;;6.30;98.20;;;;;;4991627;28;20506;-74
2023/01/16 10:53:23;;;;;;;1.63;1.30;;;6.40;98.20;;;;;;5002476;28;20491;-74
2023/01/16 10:55:53;;;;;;;1.60;1.30;;;6.40;98.20;;;;;;4997560;28;20471;-74
2023/01/16 10:58:26;;;;;;;1.63;1.40;;;6.40;98.20;;;;;;5018496;28;20493;-75
2023/01/16 11:00:56;;;;;;;1.60;1.30;;;6.40;98.20;;;;;;4991386;28;20627;-76
2023/01/16 11:03:29;;;;;;;1.63;1.30;;;6.40;98.20;;;;;;5019115;28;20996;-75
2023/01/16 11:06:09;;;;;;;1.60;1.30;;;6.40;98.20;;;;;;4995470;28;20471;-75
2023/01/16 11:08:36;;;;;;;1.60;1.30;;;6.50;98.20;;;;;;5008647;28;20465;-75
2023/01/16 11:11:05;;;;;;;1.70;1.40;;;6.40;98.20;;;;;;4992662;28;20456;-75
2023/01/16 11:19:17;;;;;;;1.60;1.30;;;6.50;98.20;;;;;;4994678;28;20497;-76
2023/01/16 11:21:48;;;;;;;1.67;1.40;;;6.40;98.20;;;;;;4988488;28;20497;-75
2023/01/16 11:24:24;;;;;;;1.67;1.30;;;6.40;98.20;;;;;;5003018;28;21001;-75
2023/01/16 11:26:55;;;;;;;1.60;1.30;;;6.40;98.20;;;;;;4994702;28;20891;-74
2023/01/16 11:29:25;;;;;;;1.60;1.30;;;6.40;98.20;;;;;;4995014;28;20468;-73
2023/01/16 11:31:56;;;;;;;1.60;1.20;;;6.40;98.20;;;;;;4998358;28;20471;-75
2023/01/16 11:34:26;;;;;;;1.60;1.27;;;6.40;98.20;;;;;;5011259;28;20488;-75
2023/01/16 11:36:55;;;;;;;1.60;1.30;;;6.40;98.20;;;;;;4986858;28;21049;-74
2023/01/16 11:39:25;;;;;;;1.60;1.40;;;6.40;98.20;;;;;;5004125;28;20464;-75
2023/01/16 11:41:56;;;;;;;1.60;1.23;;;6.40;98.20;;;;;;4993375;28;20934;-75
2023/01/16 11:47:12;;;;;;;1.60;1.30;;;6.40;98.20;;;;;;5005040;28;20941;-75
2023/01/16 11:49:41;;;;;;;1.60;1.20;;;6.50;98.20;;;;;;5006252;28;20460;-75
2023/01/16 11:52:14;;;;;;;1.60;1.23;;;6.70;98.20;;;;;;5004260;28;20487;-75
2023/01/16 11:54:41;;;;;;;1.60;1.30;;;6.80;98.20;;;;;;5008904;28;20491;-74
2023/01/16 11:57:21;;;;;;;1.60;1.20;;;6.80;98.20;;;;;;5002051;28;20643;-74
2023/01/16 12:00:17;;;;;;;1.60;1.20;;;6.80;98.20;;;;;;5004389;28;20455;-73
2023/01/16 12:03:31;;;;;;;1.70;1.30;;;6.80;98.20;;;;;;5000965;28;20544;-75
2023/01/16 12:06:09;;;;;;;1.60;1.30;;;6.90;98.20;;;;;;4978829;28;20503;-74
2023/01/16 12:09:07;;;;;;;1.60;1.30;;;6.80;98.20;;;;;;4994452;28;20467;-73
2023/01/16 12:11:52;;;;;;;1.60;1.40;;;6.80;98.20;;;;;;4995113;28;20486;-75
2023/01/16 12:14:25;;;;;;;1.60;1.30;;;6.80;98.20;;;;;;5011985;28;20522;-77
2023/01/16 12:17:16;;;;;;;1.60;1.30;;;6.70;98.20;;;;;;4990324;28;20922;-75
2023/01/16 12:20:05;;;;;;;1.60;1.30;;;6.70;98.20;;;;;;5000807;28;20505;-74
2023/01/16 12:22:51;;;;;;;1.60;1.20;;;6.70;98.20;;;;;;4990030;28;20518;-74
2023/01/16 12:25:27;;;;;;;1.60;1.30;;;6.60;98.20;;;;;;5005502;28;20456;-74
2023/01/16 12:28:06;;;;;;;1.60;1.30;;;6.60;98.20;;;;;;4978463;28;21328;-74
2023/01/16 12:31:03;;;;;;;1.60;1.30;;;6.60;98.20;;;;;;5001608;28;20460;-74
2023/01/16 12:33:38;;;;;;;1.60;1.20;;;6.60;98.20;;;;;;4993830;28;20571;-73
2023/01/16 12:36:09;;;;;;;1.60;1.30;;;6.60;98.20;;;;;;4993496;28;20472;-76
2023/01/16 12:38:42;;;;;;;1.60;1.30;;;6.50;98.20;;;;;;4996983;28;20460;-74
2023/01/16 12:44:21;;;;;;;1.60;1.30;;;6.60;98.20;;;;;;4993130;28;20862;-74
2023/01/16 12:47:02;;;;;;;1.60;1.30;;;6.60;98.20;;;;;;4980589;28;20488;-74
2023/01/16 12:49:48;;;;;;;1.63;1.30;;;6.60;98.20;;;;;;5002420;28;20530;-74
2023/01/16 12:52:36;;;;;;;1.70;1.40;;;6.70;98.20;;;;;;5001588;28;21029;-74
2023/01/16 12:55:23;;;;;;;1.60;1.30;;;6.70;98.20;;;;;;5005297;28;20862;-74
2023/01/16 12:58:12;;;;;;;1.60;1.30;;;6.60;98.20;;;;;;4970472;28;20511;-74
2023/01/16 13:00:43;;;;;;;1.60;1.20;;;6.60;98.20;;;;;;5000633;28;20464;-74
2023/01/16 13:03:19;;;;;;;1.60;1.20;;;6.60;98.20;;;;;;4973395;28;20547;-74
2023/01/16 13:05:48;;;;;;;1.60;1.30;;;6.60;98.20;;;;;;4990423;28;20563;-74
2023/01/16 13:08:21;;;;;;;1.60;1.30;;;6.60;98.20;;;;;;4979865;28;20984;-74
2023/01/16 13:13:40;;;;;;;1.63;1.30;;;6.60;98.20;;;;;;5003418;28;20845;-76
2023/01/16 13:16:14;;;;;;;1.60;1.40;;;6.60;98.20;;;;;;4983452;28;20977;-74
2023/01/16 13:18:47;;;;;;;1.60;1.30;;;6.60;98.20;;;;;;5005236;28;20701;-74
2023/01/16 13:21:18;;;;;;;1.60;1.30;;;6.70;98.20;;;;;;4988232;28;20476;-74
2023/01/16 13:23:50;;;;;;;1.60;1.30;;;6.70;98.20;;;;;;5011570;28;20456;-75
2023/01/16 13:26:19;;;;;;;1.60;1.30;;;6.70;98.20;;;;;;4988797;28;20924;-74
2023/01/16 13:28:54;;;;;;;1.63;1.40;;;6.70;98.20;;;;;;4986157;28;21000;-75
2023/01/16 13:31:30;;;;;;;1.60;1.20;;;6.70;98.20;;;;;;4993527;28;20475;-73
2023/01/16 13:34:10;;;;;;;1.60;1.40;;;6.80;98.20;;;;;;5009157;28;20959;-73
2023/01/16 13:37:06;;;;;;;1.60;1.30;;;6.90;98.20;;;;;;4981788;28;20492;-73
2023/01/16 13:40:11;;;;;;;1.60;1.20;;;6.90;98.20;;;;;;4999419;28;21020;-73
2023/01/16 13:42:47;;;;;;;1.63;1.40;;;6.90;98.20;;;;;;4981491;28;20497;-76
2023/01/16 13:48:11;;;;;;;1.60;1.30;;;6.80;98.20;;;;;;4975162;28;20530;-75
2023/01/16 13:50:39;;;;;;;1.60;1.20;;;6.80;98.20;;;;;;4998889;28;20933;-75
2023/01/16 13:53:09;;;;;;;1.60;1.20;;;6.80;98.20;;;;;;4976699;28;20511;-75
2023/01/16 13:55:40;;;;;;;1.60;1.30;;;6.80;98.20;;;;;;4995283;28;20951;-74
2023/01/16 13:58:10;;;;;;;1.60;1.30;;;6.70;98.20;;;;;;5001119;28;21038;-76
2023/01/16 14:00:38;;;;;;;1.60;1.40;;;6.70;98.20;;;;;;5001504;28;20468;-74
2023/01/16 14:03:21;;;;;;;1.60;1.37;;;6.70;98.20;;;;;;5001393;28;20490;-74
2023/01/16 14:05:54;;;;;;;1.60;1.30;;;6.60;98.20;;;;;;4998229;28;20464;-74
2023/01/16 14:11:58;;;;;;;1.60;1.20;;;6.40;98.20;;;;;;4991991;28;20586;-74
2023/01/16 14:17:20;;;;;;;1.60;1.30;;;6.30;98.20;;;;;;5001978;28;20475;-74
2023/01/16 14:19:59;;;;;;;1.60;1.30;;;6.30;98.20;;;;;;5001678;28;20494;-74
2023/01/16 14:25:23;;;;;;;1.60;1.30;;;6.20;98.20;;;;;;4999455;28;20522;-75
2023/01/16 14:27:55;;;;;;;1.70;1.40;;;6.20;98.20;;;;;;4997888;28;20934;-74
2023/01/16 14:30:25;;;;;;;1.60;1.30;;;6.10;98.20;;;;;;4997859;28;20469;-75
2023/01/16 14:32:56;;;;;;;1.60;1.20;;;6.10;98.20;;;;;;4998236;28;20498;-75